KGAG/GAG METAR and TAF weather

Enter ICAO airport designator
Station Type Date Time Source
KGAG METAR 2022/09/26 09:53 UTC NOAA

KGAG 260953Z AUTO 25005KT 10SM CLR 10/04 A3021 RMK AO2 SLP210 T01000039


Station Type Date Time Source
KGAG Decoded METAR 2022/09/26 09:53 UTC NOAA

GAGE AIRPORT, OK, United States (KGAG) 36-18N 99-46W 668M
Sep 26, 2022 - 05:53 AM EDT / 2022.09.26 0953 UTC
Wind: from the WSW (250 degrees) at 6 MPH (5 KT):0
Visibility: 10 mile(s):0
Sky conditions: clear
Temperature: 50.0 F (10.0 C)
Dew Point: 39.0 F (3.9 C)
Relative Humidity: 65%
Pressure (altimeter): 30.21 in. Hg (1023 hPa)
ob: KGAG 260953Z AUTO 25005KT 10SM CLR 10/04 A3021 RMK AO2 SLP210 T01000039
cycle: 10

Station Type Date Time Source
KGAG TAF 2018/03/21 06:22 UTC NOAA

TAF KGAG 210520Z 2106/2206 VRB04KT P6SM SCT250
FM211300 16008KT P6SM SCT250
FM211800 18012G22KT P6SM BKN250

Example: see airport list